Date,TemperatureHighF,TemperatureAvgF,TemperatureLowF,DewpointHighF,DewpointAvgF,DewpointLowF,HumidityHigh,HumidityAvg,HumidityLow,PressureMaxIn,PressureMinIn,WindSpeedMaxMPH,WindSpeedAvgMPH,GustSpeedMaxMPH,PrecipitationSumIn
2013-2-1,73.8,59.9,46.3,51.0,45.7,38.0,88,64,28,30.13,30.06,5,1,12,0.00
2013-2-2,79.4,63.8,53.4,55.0,48.7,39.0,85,62,24,30.15,30.05,4,0,9,0.00
2013-2-3,76.7,63.0,53.9,56.0,52.0,44.0,89,70,32,30.10,29.96,6,1,11,0.00
2013-2-4,66.5,57.8,51.0,55.0,52.5,48.0,91,83,65,30.07,29.95,5,1,9,0.00
2013-2-5,60.1,56.8,54.9,52.0,50.3,49.0,84,79,72,30.07,29.96,5,1,7,0.00
2013-2-6,64.8,57.7,48.8,50.0,48.8,45.0,88,73,56,30.08,29.97,6,1,10,0.00
2013-2-7,63.6,54.1,43.8,51.0,46.1,41.0,92,75,61,30.11,29.96,8,1,11,0.00
2013-2-8,56.3,51.6,43.0,47.0,42.2,38.0,88,71,58,29.97,29.86,15,4,20,0.19
2013-2-9,60.1,48.5,37.0,42.0,39.5,35.0,92,73,44,30.07,29.91,6,1,12,0.01
2013-2-10,58.9,50.3,39.3,45.0,41.7,36.0,90,73,51,30.08,29.98,7,1,8,0.00
2013-2-11,64.0,52.2,40.8,45.0,40.3,32.0,90,67,30,30.20,30.03,9,2,14,0.00
2013-2-12,64.6,51.4,38.2,46.0,38.8,27.0,88,65,25,30.32,30.20,5,1,10,0.00
2013-2-13,67.8,53.4,39.3,46.0,40.3,31.0,89,66,26,30.23,30.10,7,1,9,0.00
2013-2-14,76.8,56.0,41.2,51.0,44.5,38.0,90,69,29,30.18,30.01,8,1,11,0.00
2013-2-15,84.1,63.3,46.2,46.0,31.5,5.0,86,43,5,30.14,30.07,8,1,12,0.00
2013-2-16,83.6,65.4,48.6,35.0,19.9,-14.0,53,25,2,30.11,29.93,8,1,12,0.00
2013-2-17,66.0,55.4,44.5,53.0,46.7,35.0,90,73,53,30.00,29.90,8,2,12,0.00
2013-2-18,63.2,57.6,55.1,49.0,46.7,44.0,75,68,55,30.04,29.93,8,2,10,0.00
2013-2-19,60.1,54.9,48.4,47.0,42.6,39.0,87,64,49,29.96,29.69,11,4,14,0.22
2013-2-20,61.0,53.1,44.0,45.0,33.2,26.0,69,48,32,29.96,29.68,17,5,22,0.00
2013-2-21,65.1,53.2,42.5,44.0,40.4,34.0,82,64,33,30.06,29.93,9,2,14,0.00
2013-2-22,64.7,52.5,39.4,49.0,43.0,36.0,88,72,48,30.17,30.06,6,1,12,0.00
2013-2-23,65.0,53.7,40.9,49.0,44.0,38.0,89,72,42,30.13,29.89,9,1,14,0.00
2013-2-24,71.1,56.9,43.4,46.0,25.9,-4.0,90,46,5,30.16,29.96,8,2,13,0.01
2013-2-25,68.8,54.6,39.2,45.0,35.1,20.0,79,53,16,30.19,30.04,7,1,12,0.00
2013-2-26,71.6,55.2,40.0,49.0,41.7,30.0,88,64,21,30.07,29.95,9,1,10,0.00
2013-2-27,77.7,60.9,44.3,42.0,24.1,-6.0,80,36,4,30.22,30.08,8,2,11,0.00
2013-2-28,82.0,61.8,43.7,40.0,23.5,-15.0,70,35,2,30.27,30.19,9,1,14,0.00